sensor_id;sensor_type;location;lat;lon;timestamp;temperature;humidity
28761;DHT22;15917;50.014;8.352;2023-01-20T00:00:07;1.10;99.90
28761;DHT22;15917;50.014;8.352;2023-01-20T00:02:38;1.10;99.90
28761;DHT22;15917;50.014;8.352;2023-01-20T00:05:04;1.10;99.90
28761;DHT22;15917;50.014;8.352;2023-01-20T00:07:29;1.10;99.90
28761;DHT22;15917;50.014;8.352;2023-01-20T00:09:55;1.10;99.90
28761;DHT22;15917;50.014;8.352;2023-01-20T00:12:21;1.10;99.90
28761;DHT22;15917;50.014;8.352;2023-01-20T00:14:46;1.00;99.90
28761;DHT22;15917;50.014;8.352;2023-01-20T00:17:12;1.10;99.90
28761;DHT22;15917;50.014;8.352;2023-01-20T00:19:38;1.00;99.90
28761;DHT22;15917;50.014;8.352;2023-01-20T00:22:03;1.00;99.90
28761;DHT22;15917;50.014;8.352;2023-01-20T00:24:29;1.00;99.90
28761;DHT22;15917;50.014;8.352;2023-01-20T00:26:54;1.00;99.90
28761;DHT22;15917;50.014;8.352;2023-01-20T00:29:20;1.00;99.90
28761;DHT22;15917;50.014;8.352;2023-01-20T00:31:45;1.00;99.90
28761;DHT22;15917;50.014;8.352;2023-01-20T00:34:11;1.10;99.90
28761;DHT22;15917;50.014;8.352;2023-01-20T00:36:36;1.00;99.90
28761;DHT22;15917;50.014;8.352;2023-01-20T00:39:03;1.00;99.90
28761;DHT22;15917;50.014;8.352;2023-01-20T00:41:29;1.00;99.90
28761;DHT22;15917;50.014;8.352;2023-01-20T00:43:55;1.00;99.90
28761;DHT22;15917;50.014;8.352;2023-01-20T00:46:20;1.00;99.90
28761;DHT22;15917;50.014;8.352;2023-01-20T00:48:47;0.90;99.90
28761;DHT22;15917;50.014;8.352;2023-01-20T00:51:13;0.90;99.90
28761;DHT22;15917;50.014;8.352;2023-01-20T00:53:39;0.90;99.90
28761;DHT22;15917;50.014;8.352;2023-01-20T00:56:05;0.90;99.90
28761;DHT22;15917;50.014;8.352;2023-01-20T00:58:30;0.90;99.90
28761;DHT22;15917;50.014;8.352;2023-01-20T01:00:56;0.90;99.90
28761;DHT22;15917;50.014;8.352;2023-01-20T01:03:23;0.90;99.90
28761;DHT22;15917;50.014;8.352;2023-01-20T01:05:49;0.80;99.90
28761;DHT22;15917;50.014;8.352;2023-01-20T01:08:14;0.80;99.90
28761;DHT22;15917;50.014;8.352;2023-01-20T01:10:40;0.80;99.90
28761;DHT22;15917;50.014;8.352;2023-01-20T01:13:06;0.80;99.90
28761;DHT22;15917;50.014;8.352;2023-01-20T01:15:32;0.80;99.90
28761;DHT22;15917;50.014;8.352;2023-01-20T01:17:58;0.80;99.90
28761;DHT22;15917;50.014;8.352;2023-01-20T01:20:24;0.80;99.90
28761;DHT22;15917;50.014;8.352;2023-01-20T01:22:50;0.70;99.90
28761;DHT22;15917;50.014;8.352;2023-01-20T01:25:15;0.80;99.90
28761;DHT22;15917;50.014;8.352;2023-01-20T01:27:42;0.70;99.90
28761;DHT22;15917;50.014;8.352;2023-01-20T01:30:08;0.70;99.90
28761;DHT22;15917;50.014;8.352;2023-01-20T01:32:34;0.70;99.90
28761;DHT22;15917;50.014;8.352;2023-01-20T01:34:59;0.60;99.90
28761;DHT22;15917;50.014;8.352;2023-01-20T01:37:27;0.60;99.90
28761;DHT22;15917;50.014;8.352;2023-01-20T01:39:52;0.70;99.90
28761;DHT22;15917;50.014;8.352;2023-01-20T01:42:21;0.60;99.90
28761;DHT22;15917;50.014;8.352;2023-01-20T01:52:59;0.50;99.90
28761;DHT22;15917;50.014;8.352;2023-01-20T01:55:31;0.50;99.90
28761;DHT22;15917;50.014;8.352;2023-01-20T01:57:58;0.50;99.90
28761;DHT22;15917;50.014;8.352;2023-01-20T02:00:25;0.50;99.90
28761;DHT22;15917;50.014;8.352;2023-01-20T02:02:51;0.50;99.90
28761;DHT22;15917;50.014;8.352;2023-01-20T02:05:17;0.50;99.90
28761;DHT22;15917;50.014;8.352;2023-01-20T02:07:44;0.50;99.90
28761;DHT22;15917;50.014;8.352;2023-01-20T02:10:11;0.50;99.90
28761;DHT22;15917;50.014;8.352;2023-01-20T02:12:37;0.50;99.90
28761;DHT22;15917;50.014;8.352;2023-01-20T02:15:04;0.50;99.90
28761;DHT22;15917;50.014;8.352;2023-01-20T02:17:54;0.50;99.90
28761;DHT22;15917;50.014;8.352;2023-01-20T02:23:11;0.40;99.90
28761;DHT22;15917;50.014;8.352;2023-01-20T02:34:14;0.30;99.90
28761;DHT22;15917;50.014;8.352;2023-01-20T02:37:04;0.20;99.90
28761;DHT22;15917;50.014;8.352;2023-01-20T02:42:15;0.20;99.90
28761;DHT22;15917;50.014;8.352;2023-01-20T02:47:28;0.20;99.90
28761;DHT22;15917;50.014;8.352;2023-01-20T02:50:08;0.10;99.90
28761;DHT22;15917;50.014;8.352;2023-01-20T02:52:39;0.10;99.90
28761;DHT22;15917;50.014;8.352;2023-01-20T02:55:09;0.10;99.90
28761;DHT22;15917;50.014;8.352;2023-01-20T02:57:41;0.10;99.90
28761;DHT22;15917;50.014;8.352;2023-01-20T03:00:13;0.10;99.90
28761;DHT22;15917;50.014;8.352;2023-01-20T03:02:43;0.10;99.90
28761;DHT22;15917;50.014;8.352;2023-01-20T03:05:16;0.20;99.90
28761;DHT22;15917;50.014;8.352;2023-01-20T03:07:43;0.20;99.90
28761;DHT22;15917;50.014;8.352;2023-01-20T03:10:13;0.20;99.90
28761;DHT22;15917;50.014;8.352;2023-01-20T03:13:08;0.20;99.90
28761;DHT22;15917;50.014;8.352;2023-01-20T03:15:54;0.20;99.90
28761;DHT22;15917;50.014;8.352;2023-01-20T03:18:21;0.10;99.90
28761;DHT22;15917;50.014;8.352;2023-01-20T03:20:46;0.00;99.90
28761;DHT22;15917;50.014;8.352;2023-01-20T03:23:12;0.00;99.90
28761;DHT22;15917;50.014;8.352;2023-01-20T03:25:39;0.00;99.90
28761;DHT22;15917;50.014;8.352;2023-01-20T03:28:05;0.00;99.90
28761;DHT22;15917;50.014;8.352;2023-01-20T03:30:31;0.00;99.90
28761;DHT22;15917;50.014;8.352;2023-01-20T03:32:56;0.00;99.90
28761;DHT22;15917;50.014;8.352;2023-01-20T03:35:22;0.00;99.90
28761;DHT22;15917;50.014;8.352;2023-01-20T03:37:48;0.00;99.90
28761;DHT22;15917;50.014;8.352;2023-01-20T03:40:14;0.00;99.90
28761;DHT22;15917;50.014;8.352;2023-01-20T03:42:55;-0.10;99.90
28761;DHT22;15917;50.014;8.352;2023-01-20T03:45:51;0.00;99.90
28761;DHT22;15917;50.014;8.352;2023-01-20T03:48:30;0.00;99.90
28761;DHT22;15917;50.014;8.352;2023-01-20T03:53:46;0.10;99.90
28761;DHT22;15917;50.014;8.352;2023-01-20T03:56:23;0.20;99.90
28761;DHT22;15917;50.014;8.352;2023-01-20T03:58:52;0.20;99.90
28761;DHT22;15917;50.014;8.352;2023-01-20T04:01:26;0.20;99.90
28761;DHT22;15917;50.014;8.352;2023-01-20T04:03:54;0.30;99.90
28761;DHT22;15917;50.014;8.352;2023-01-20T04:06:23;0.30;99.90
28761;DHT22;15917;50.014;8.352;2023-01-20T04:08:54;0.20;99.90
28761;DHT22;15917;50.014;8.352;2023-01-20T04:11:20;0.20;99.90
28761;DHT22;15917;50.014;8.352;2023-01-20T04:13:46;0.20;99.90
28761;DHT22;15917;50.014;8.352;2023-01-20T04:16:15;0.20;99.90
28761;DHT22;15917;50.014;8.352;2023-01-20T04:18:45;0.20;99.90
28761;DHT22;15917;50.014;8.352;2023-01-20T04:21:15;0.20;99.90
28761;DHT22;15917;50.014;8.352;2023-01-20T04:24:13;0.10;99.90
28761;DHT22;15917;50.014;8.352;2023-01-20T04:26:41;0.10;99.90
28761;DHT22;15917;50.014;8.352;2023-01-20T04:29:07;0.00;99.90
28761;DHT22;15917;50.014;8.352;2023-01-20T04:31:36;0.00;99.90
28761;DHT22;15917;50.014;8.352;2023-01-20T04:34:05;0.00;99.90
28761;DHT22;15917;50.014;8.352;2023-01-20T04:36:31;0.00;99.90
28761;DHT22;15917;50.014;8.352;2023-01-20T04:38:56;0.00;99.90
28761;DHT22;15917;50.014;8.352;2023-01-20T04:41:22;0.10;99.90
28761;DHT22;15917;50.014;8.352;2023-01-20T04:43:48;0.10;99.90
28761;DHT22;15917;50.014;8.352;2023-01-20T04:46:14;0.10;99.90
28761;DHT22;15917;50.014;8.352;2023-01-20T04:48:40;0.10;99.90
28761;DHT22;15917;50.014;8.352;2023-01-20T04:51:06;0.20;99.90
28761;DHT22;15917;50.014;8.352;2023-01-20T04:53:33;0.20;99.90
28761;DHT22;15917;50.014;8.352;2023-01-20T04:55:58;0.20;99.90
28761;DHT22;15917;50.014;8.352;2023-01-20T04:58:24;0.20;99.90
28761;DHT22;15917;50.014;8.352;2023-01-20T05:00:50;0.10;99.90
28761;DHT22;15917;50.014;8.352;2023-01-20T05:03:16;0.20;99.90
28761;DHT22;15917;50.014;8.352;2023-01-20T05:05:41;0.20;99.90
28761;DHT22;15917;50.014;8.352;2023-01-20T05:08:07;0.20;99.90
28761;DHT22;15917;50.014;8.352;2023-01-20T05:10:33;0.20;99.90
28761;DHT22;15917;50.014;8.352;2023-01-20T05:12:59;0.10;99.90
28761;DHT22;15917;50.014;8.352;2023-01-20T05:15:25;0.00;99.90
28761;DHT22;15917;50.014;8.352;2023-01-20T05:17:50;0.00;99.90
28761;DHT22;15917;50.014;8.352;2023-01-20T05:20:16;-0.10;99.90
28761;DHT22;15917;50.014;8.352;2023-01-20T05:22:44;0.00;99.90
28761;DHT22;15917;50.014;8.352;2023-01-20T05:25:10;0.00;99.90
28761;DHT22;15917;50.014;8.352;2023-01-20T05:27:36;0.00;99.90
28761;DHT22;15917;50.014;8.352;2023-01-20T05:30:05;0.00;99.90
28761;DHT22;15917;50.014;8.352;2023-01-20T05:32:31;0.10;99.90
28761;DHT22;15917;50.014;8.352;2023-01-20T05:34:57;0.10;99.90
28761;DHT22;15917;50.014;8.352;2023-01-20T05:37:23;0.10;99.90
28761;DHT22;15917;50.014;8.352;2023-01-20T05:39:48;0.10;99.90
28761;DHT22;15917;50.014;8.352;2023-01-20T05:42:14;0.10;99.90
28761;DHT22;15917;50.014;8.352;2023-01-20T05:44:40;0.20;99.90
28761;DHT22;15917;50.014;8.352;2023-01-20T05:47:06;0.20;99.90
28761;DHT22;15917;50.014;8.352;2023-01-20T05:49:32;0.20;99.90
28761;DHT22;15917;50.014;8.352;2023-01-20T05:51:57;0.30;99.90
28761;DHT22;15917;50.014;8.352;2023-01-20T05:54:23;0.40;99.90
28761;DHT22;15917;50.014;8.352;2023-01-20T05:56:50;0.60;99.90
28761;DHT22;15917;50.014;8.352;2023-01-20T05:59:16;0.60;99.90
28761;DHT22;15917;50.014;8.352;2023-01-20T06:01:42;0.70;99.90
28761;DHT22;15917;50.014;8.352;2023-01-20T06:04:08;0.70;99.90
28761;DHT22;15917;50.014;8.352;2023-01-20T06:06:33;0.80;99.90
28761;DHT22;15917;50.014;8.352;2023-01-20T06:08:59;0.80;99.90
28761;DHT22;15917;50.014;8.352;2023-01-20T06:11:24;0.90;99.90
28761;DHT22;15917;50.014;8.352;2023-01-20T06:13:50;0.80;99.90
28761;DHT22;15917;50.014;8.352;2023-01-20T06:16:16;0.70;99.90
28761;DHT22;15917;50.014;8.352;2023-01-20T06:18:42;0.60;99.90
28761;DHT22;15917;50.014;8.352;2023-01-20T06:21:08;0.60;99.90
28761;DHT22;15917;50.014;8.352;2023-01-20T06:23:34;0.50;99.90
28761;DHT22;15917;50.014;8.352;2023-01-20T06:26:02;0.50;99.90
28761;DHT22;15917;50.014;8.352;2023-01-20T06:28:28;0.40;99.90
28761;DHT22;15917;50.014;8.352;2023-01-20T06:31:11;0.40;99.90
28761;DHT22;15917;50.014;8.352;2023-01-20T06:33:38;0.40;99.90
28761;DHT22;15917;50.014;8.352;2023-01-20T06:36:05;0.40;99.90
28761;DHT22;15917;50.014;8.352;2023-01-20T06:38:32;0.40;99.90
28761;DHT22;15917;50.014;8.352;2023-01-20T06:41:01;0.40;99.90
28761;DHT22;15917;50.014;8.352;2023-01-20T06:43:28;0.40;99.90
28761;DHT22;15917;50.014;8.352;2023-01-20T06:46:01;2.30;99.90
28761;DHT22;15917;50.014;8.352;2023-01-20T06:48:27;3.60;99.90
28761;DHT22;15917;50.014;8.352;2023-01-20T06:50:58;3.50;99.90
28761;DHT22;15917;50.014;8.352;2023-01-20T06:53:24;2.80;99.90
28761;DHT22;15917;50.014;8.352;2023-01-20T06:55:54;2.20;99.90
28761;DHT22;15917;50.014;8.352;2023-01-20T06:58:26;1.80;99.90
28761;DHT22;15917;50.014;8.352;2023-01-20T07:00:52;1.50;99.90
28761;DHT22;15917;50.014;8.352;2023-01-20T07:03:18;1.20;99.90
28761;DHT22;15917;50.014;8.352;2023-01-20T07:05:53;1.10;99.90
28761;DHT22;15917;50.014;8.352;2023-01-20T07:08:20;0.90;99.90
28761;DHT22;15917;50.014;8.352;2023-01-20T07:10:45;0.80;99.90
28761;DHT22;15917;50.014;8.352;2023-01-20T07:13:11;0.60;99.90
28761;DHT22;15917;50.014;8.352;2023-01-20T07:15:36;0.50;99.90
28761;DHT22;15917;50.014;8.352;2023-01-20T07:18:02;0.40;99.90
28761;DHT22;15917;50.014;8.352;2023-01-20T07:20:27;0.30;99.90
28761;DHT22;15917;50.014;8.352;2023-01-20T07:22:53;0.30;99.90
28761;DHT22;15917;50.014;8.352;2023-01-20T07:25:18;0.30;99.90
28761;DHT22;15917;50.014;8.352;2023-01-20T07:27:44;0.30;99.90
28761;DHT22;15917;50.014;8.352;2023-01-20T07:30:10;0.30;99.90
28761;DHT22;15917;50.014;8.352;2023-01-20T07:32:35;0.30;99.90
28761;DHT22;15917;50.014;8.352;2023-01-20T07:35:01;0.40;99.90
28761;DHT22;15917;50.014;8.352;2023-01-20T07:37:26;0.30;99.90
28761;DHT22;15917;50.014;8.352;2023-01-20T07:39:52;0.30;99.90
28761;DHT22;15917;50.014;8.352;2023-01-20T07:42:18;0.30;99.90
28761;DHT22;15917;50.014;8.352;2023-01-20T07:44:43;0.20;99.90
28761;DHT22;15917;50.014;8.352;2023-01-20T07:47:09;0.20;99.90
28761;DHT22;15917;50.014;8.352;2023-01-20T07:49:35;0.20;99.90
28761;DHT22;15917;50.014;8.352;2023-01-20T07:52:00;0.20;99.90
28761;DHT22;15917;50.014;8.352;2023-01-20T07:54:26;0.10;99.90
28761;DHT22;15917;50.014;8.352;2023-01-20T07:56:51;0.10;99.90
28761;DHT22;15917;50.014;8.352;2023-01-20T07:59:17;0.10;99.90
28761;DHT22;15917;50.014;8.352;2023-01-20T08:01:42;0.10;99.90
28761;DHT22;15917;50.014;8.352;2023-01-20T08:04:08;0.10;99.90
28761;DHT22;15917;50.014;8.352;2023-01-20T08:06:34;0.10;99.90
28761;DHT22;15917;50.014;8.352;2023-01-20T08:09:00;0.20;99.90
28761;DHT22;15917;50.014;8.352;2023-01-20T08:11:26;0.20;99.90
28761;DHT22;15917;50.014;8.352;2023-01-20T08:13:52;0.30;99.90
28761;DHT22;15917;50.014;8.352;2023-01-20T08:16:18;0.20;99.90
28761;DHT22;15917;50.014;8.352;2023-01-20T08:18:45;0.20;99.90
28761;DHT22;15917;50.014;8.352;2023-01-20T08:21:23;0.10;99.90
28761;DHT22;15917;50.014;8.352;2023-01-20T09:05:35;3.90;99.90
28761;DHT22;15917;50.014;8.352;2023-01-20T09:08:01;4.70;99.90
28761;DHT22;15917;50.014;8.352;2023-01-20T09:10:26;4.90;99.90
28761;DHT22;15917;50.014;8.352;2023-01-20T09:12:52;5.00;99.90
28761;DHT22;15917;50.014;8.352;2023-01-20T09:15:17;4.80;99.90
28761;DHT22;15917;50.014;8.352;2023-01-20T09:17:44;4.60;99.90
28761;DHT22;15917;50.014;8.352;2023-01-20T09:20:10;4.30;99.90
28761;DHT22;15917;50.014;8.352;2023-01-20T09:22:36;4.40;99.90
28761;DHT22;15917;50.014;8.352;2023-01-20T09:25:03;4.70;99.90
28761;DHT22;15917;50.014;8.352;2023-01-20T09:27:29;4.60;99.90
28761;DHT22;15917;50.014;8.352;2023-01-20T09:29:55;4.50;99.90
28761;DHT22;15917;50.014;8.352;2023-01-20T09:32:21;4.60;99.90
28761;DHT22;15917;50.014;8.352;2023-01-20T09:34:46;4.90;99.90
28761;DHT22;15917;50.014;8.352;2023-01-20T09:37:12;5.80;99.90
28761;DHT22;15917;50.014;8.352;2023-01-20T09:39:56;5.80;99.90
28761;DHT22;15917;50.014;8.352;2023-01-20T09:45:56;5.60;99.90
28761;DHT22;15917;50.014;8.352;2023-01-20T09:48:37;6.60;99.90
28761;DHT22;15917;50.014;8.352;2023-01-20T09:51:37;7.20;99.90
28761;DHT22;15917;50.014;8.352;2023-01-20T09:54:25;7.10;99.90
28761;DHT22;15917;50.014;8.352;2023-01-20T09:56:55;6.90;99.90
28761;DHT22;15917;50.014;8.352;2023-01-20T09:59:29;6.60;99.90
28761;DHT22;15917;50.014;8.352;2023-01-20T10:01:59;6.50;99.90
28761;DHT22;15917;50.014;8.352;2023-01-20T10:05:24;6.20;99.90
28761;DHT22;15917;50.014;8.352;2023-01-20T10:10:19;6.10;99.90
28761;DHT22;15917;50.014;8.352;2023-01-20T10:13:12;5.90;99.90
28761;DHT22;15917;50.014;8.352;2023-01-20T10:15:42;6.10;99.90
28761;DHT22;15917;50.014;8.352;2023-01-20T10:18:36;6.30;99.90
28761;DHT22;15917;50.014;8.352;2023-01-20T10:21:21;6.30;99.90
28761;DHT22;15917;50.014;8.352;2023-01-20T10:24:35;6.50;99.90
28761;DHT22;15917;50.014;8.352;2023-01-20T10:26:47;6.60;99.90
28761;DHT22;15917;50.014;8.352;2023-01-20T10:29:26;6.60;99.90
28761;DHT22;15917;50.014;8.352;2023-01-20T10:31:58;6.80;99.90
28761;DHT22;15917;50.014;8.352;2023-01-20T10:34:28;7.00;99.90
28761;DHT22;15917;50.014;8.352;2023-01-20T10:37:06;7.10;99.90
28761;DHT22;15917;50.014;8.352;2023-01-20T10:42:47;6.80;99.90
28761;DHT22;15917;50.014;8.352;2023-01-20T10:45:49;6.70;99.90
28761;DHT22;15917;50.014;8.352;2023-01-20T10:48:33;6.80;99.90
28761;DHT22;15917;50.014;8.352;2023-01-20T10:53:41;7.00;99.90
28761;DHT22;15917;50.014;8.352;2023-01-20T10:56:31;7.30;99.90
28761;DHT22;15917;50.014;8.352;2023-01-20T10:59:04;7.00;99.90
28761;DHT22;15917;50.014;8.352;2023-01-20T11:01:31;6.90;99.90
28761;DHT22;15917;50.014;8.352;2023-01-20T11:03:57;7.00;99.90
28761;DHT22;15917;50.014;8.352;2023-01-20T11:06:26;7.00;99.90
28761;DHT22;15917;50.014;8.352;2023-01-20T11:08:52;6.80;99.90
28761;DHT22;15917;50.014;8.352;2023-01-20T11:11:23;7.00;99.90
28761;DHT22;15917;50.014;8.352;2023-01-20T11:13:50;7.20;99.90
28761;DHT22;15917;50.014;8.352;2023-01-20T11:16:22;7.10;99.90
28761;DHT22;15917;50.014;8.352;2023-01-20T11:19:03;7.30;99.90
28761;DHT22;15917;50.014;8.352;2023-01-20T11:21:31;7.50;99.90
28761;DHT22;15917;50.014;8.352;2023-01-20T11:23:58;7.30;99.90
28761;DHT22;15917;50.014;8.352;2023-01-20T11:26:26;7.00;99.90
28761;DHT22;15917;50.014;8.352;2023-01-20T11:31:37;6.20;99.90
28761;DHT22;15917;50.014;8.352;2023-01-20T11:36:48;6.10;99.90
28761;DHT22;15917;50.014;8.352;2023-01-20T11:44:48;7.90;99.90
28761;DHT22;15917;50.014;8.352;2023-01-20T11:52:35;7.30;99.90
28761;DHT22;15917;50.014;8.352;2023-01-20T11:57:54;7.00;99.90
28761;DHT22;15917;50.014;8.352;2023-01-20T12:00:30;6.80;99.90
28761;DHT22;15917;50.014;8.352;2023-01-20T12:06:24;6.80;99.90
28761;DHT22;15917;50.014;8.352;2023-01-20T12:09:11;6.70;99.90
28761;DHT22;15917;50.014;8.352;2023-01-20T12:11:58;6.50;99.90
28761;DHT22;15917;50.014;8.352;2023-01-20T12:14:37;6.60;99.90
28761;DHT22;15917;50.014;8.352;2023-01-20T12:17:15;6.40;99.90
28761;DHT22;15917;50.014;8.352;2023-01-20T12:20:03;6.20;99.90
28761;DHT22;15917;50.014;8.352;2023-01-20T12:23:00;6.10;99.90
28761;DHT22;15917;50.014;8.352;2023-01-20T12:28:44;5.50;99.90
28761;DHT22;15917;50.014;8.352;2023-01-20T12:31:08;5.50;99.90
28761;DHT22;15917;50.014;8.352;2023-01-20T12:33:48;5.40;99.90
28761;DHT22;15917;50.014;8.352;2023-01-20T12:37:05;5.20;99.90
28761;DHT22;15917;50.014;8.352;2023-01-20T12:42:56;5.10;99.90
28761;DHT22;15917;50.014;8.352;2023-01-20T12:48:56;5.10;99.90
28761;DHT22;15917;50.014;8.352;2023-01-20T12:51:54;5.00;99.90
28761;DHT22;15917;50.014;8.352;2023-01-20T12:54:48;4.80;99.90
28761;DHT22;15917;50.014;8.352;2023-01-20T13:03:01;4.40;99.90
28761;DHT22;15917;50.014;8.352;2023-01-20T13:05:55;4.30;99.90
28761;DHT22;15917;50.014;8.352;2023-01-20T13:11:24;4.10;99.90
28761;DHT22;15917;50.014;8.352;2023-01-20T13:19:55;4.00;99.90
28761;DHT22;15917;50.014;8.352;2023-01-20T13:22:22;4.00;99.90
28761;DHT22;15917;50.014;8.352;2023-01-20T13:24:53;4.10;99.90
28761;DHT22;15917;50.014;8.352;2023-01-20T13:27:39;4.00;99.90
28761;DHT22;15917;50.014;8.352;2023-01-20T13:30:06;4.10;99.90
28761;DHT22;15917;50.014;8.352;2023-01-20T13:32:44;4.00;99.90
28761;DHT22;15917;50.014;8.352;2023-01-20T13:37:54;4.00;99.90
28761;DHT22;15917;50.014;8.352;2023-01-20T13:43:02;3.90;99.90
28761;DHT22;15917;50.014;8.352;2023-01-20T13:45:28;3.80;99.90
28761;DHT22;15917;50.014;8.352;2023-01-20T13:58:24;3.90;99.90
28761;DHT22;15917;50.014;8.352;2023-01-20T14:00:52;3.90;99.90
28761;DHT22;15917;50.014;8.352;2023-01-20T14:03:32;3.90;99.90
28761;DHT22;15917;50.014;8.352;2023-01-20T14:06:06;3.90;99.90
28761;DHT22;15917;50.014;8.352;2023-01-20T14:08:44;3.80;99.90
28761;DHT22;15917;50.014;8.352;2023-01-20T14:14:01;3.90;99.90
28761;DHT22;15917;50.014;8.352;2023-01-20T14:16:40;3.90;99.90
28761;DHT22;15917;50.014;8.352;2023-01-20T14:19:29;3.90;99.90
28761;DHT22;15917;50.014;8.352;2023-01-20T14:22:01;4.00;99.90
28761;DHT22;15917;50.014;8.352;2023-01-20T14:27:20;4.00;99.90
28761;DHT22;15917;50.014;8.352;2023-01-20T14:29:48;4.00;99.90
28761;DHT22;15917;50.014;8.352;2023-01-20T14:32:23;3.90;99.90
28761;DHT22;15917;50.014;8.352;2023-01-20T14:34:50;3.90;99.90
28761;DHT22;15917;50.014;8.352;2023-01-20T14:37:25;4.00;99.90
28761;DHT22;15917;50.014;8.352;2023-01-20T14:39:51;4.00;99.90
28761;DHT22;15917;50.014;8.352;2023-01-20T14:42:20;3.90;99.90
28761;DHT22;15917;50.014;8.352;2023-01-20T14:44:47;3.80;99.90
28761;DHT22;15917;50.014;8.352;2023-01-20T14:47:13;3.80;99.90
28761;DHT22;15917;50.014;8.352;2023-01-20T14:49:39;3.80;99.90
28761;DHT22;15917;50.014;8.352;2023-01-20T14:52:09;3.80;99.90
28761;DHT22;15917;50.014;8.352;2023-01-20T14:54:40;3.80;99.90
28761;DHT22;15917;50.014;8.352;2023-01-20T15:00:01;3.90;99.90
28761;DHT22;15917;50.014;8.352;2023-01-20T15:02:34;3.90;99.90
28761;DHT22;15917;50.014;8.352;2023-01-20T15:05:01;3.80;99.90
28761;DHT22;15917;50.014;8.352;2023-01-20T15:07:27;3.90;99.90
28761;DHT22;15917;50.014;8.352;2023-01-20T15:10:00;3.80;99.90
28761;DHT22;15917;50.014;8.352;2023-01-20T15:12:37;3.80;99.90
28761;DHT22;15917;50.014;8.352;2023-01-20T15:15:31;3.80;99.90
28761;DHT22;15917;50.014;8.352;2023-01-20T15:18:15;3.80;99.90
28761;DHT22;15917;50.014;8.352;2023-01-20T15:23:46;3.90;99.90
28761;DHT22;15917;50.014;8.352;2023-01-20T15:26:27;3.90;99.90
28761;DHT22;15917;50.014;8.352;2023-01-20T15:28:53;5.00;99.90
28761;DHT22;15917;50.014;8.352;2023-01-20T15:31:19;6.10;99.90
28761;DHT22;15917;50.014;8.352;2023-01-20T15:33:45;6.40;99.90
28761;DHT22;15917;50.014;8.352;2023-01-20T15:36:23;6.30;99.90
28761;DHT22;15917;50.014;8.352;2023-01-20T15:38:51;5.80;99.90
28761;DHT22;15917;50.014;8.352;2023-01-20T15:41:17;5.20;99.90
28761;DHT22;15917;50.014;8.352;2023-01-20T15:43:43;4.70;99.90
28761;DHT22;15917;50.014;8.352;2023-01-20T15:46:10;4.40;99.90
28761;DHT22;15917;50.014;8.352;2023-01-20T15:48:36;4.10;99.90
28761;DHT22;15917;50.014;8.352;2023-01-20T15:51:02;4.00;99.90
28761;DHT22;15917;50.014;8.352;2023-01-20T15:53:28;4.00;99.90
28761;DHT22;15917;50.014;8.352;2023-01-20T15:55:53;3.90;99.90
28761;DHT22;15917;50.014;8.352;2023-01-20T15:58:22;3.90;99.90
28761;DHT22;15917;50.014;8.352;2023-01-20T16:00:48;3.90;99.90
28761;DHT22;15917;50.014;8.352;2023-01-20T16:03:15;3.80;99.90
28761;DHT22;15917;50.014;8.352;2023-01-20T16:05:40;3.80;99.90
28761;DHT22;15917;50.014;8.352;2023-01-20T16:08:17;3.80;99.90
28761;DHT22;15917;50.014;8.352;2023-01-20T16:10:43;3.80;99.90
28761;DHT22;15917;50.014;8.352;2023-01-20T16:13:09;3.70;99.90
28761;DHT22;15917;50.014;8.352;2023-01-20T16:15:35;3.70;99.90
28761;DHT22;15917;50.014;8.352;2023-01-20T16:18:02;3.70;99.90
28761;DHT22;15917;50.014;8.352;2023-01-20T16:20:27;3.70;99.90
28761;DHT22;15917;50.014;8.352;2023-01-20T16:22:53;3.70;99.90
28761;DHT22;15917;50.014;8.352;2023-01-20T16:25:19;3.70;99.90
28761;DHT22;15917;50.014;8.352;2023-01-20T16:27:45;3.70;99.90
28761;DHT22;15917;50.014;8.352;2023-01-20T16:30:21;3.60;99.90
28761;DHT22;15917;50.014;8.352;2023-01-20T16:32:47;3.60;99.90
28761;DHT22;15917;50.014;8.352;2023-01-20T16:35:13;3.70;99.90
28761;DHT22;15917;50.014;8.352;2023-01-20T16:37:39;3.70;99.90
28761;DHT22;15917;50.014;8.352;2023-01-20T16:40:07;3.70;99.90
28761;DHT22;15917;50.014;8.352;2023-01-20T16:42:35;3.50;99.90
28761;DHT22;15917;50.014;8.352;2023-01-20T16:45:02;3.40;99.90
28761;DHT22;15917;50.014;8.352;2023-01-20T16:47:27;3.40;99.90
28761;DHT22;15917;50.014;8.352;2023-01-20T16:49:53;3.30;99.90
28761;DHT22;15917;50.014;8.352;2023-01-20T16:52:18;3.10;99.90
28761;DHT22;15917;50.014;8.352;2023-01-20T16:54:44;3.00;99.90
28761;DHT22;15917;50.014;8.352;2023-01-20T16:57:09;3.00;99.90
28761;DHT22;15917;50.014;8.352;2023-01-20T16:59:35;3.00;99.90
28761;DHT22;15917;50.014;8.352;2023-01-20T17:02:01;2.90;99.90
28761;DHT22;15917;50.014;8.352;2023-01-20T17:04:26;2.80;99.90
28761;DHT22;15917;50.014;8.352;2023-01-20T17:06:53;2.70;99.90
28761;DHT22;15917;50.014;8.352;2023-01-20T17:09:19;2.60;99.90
28761;DHT22;15917;50.014;8.352;2023-01-20T17:11:45;2.60;99.90
28761;DHT22;15917;50.014;8.352;2023-01-20T17:14:10;2.60;99.90
28761;DHT22;15917;50.014;8.352;2023-01-20T17:16:37;2.60;99.90
28761;DHT22;15917;50.014;8.352;2023-01-20T17:19:03;2.60;99.90
28761;DHT22;15917;50.014;8.352;2023-01-20T17:21:31;2.60;99.90
28761;DHT22;15917;50.014;8.352;2023-01-20T17:23:59;2.60;99.90
28761;DHT22;15917;50.014;8.352;2023-01-20T17:26:26;2.60;99.90
28761;DHT22;15917;50.014;8.352;2023-01-20T17:29:02;2.60;99.90
28761;DHT22;15917;50.014;8.352;2023-01-20T17:31:29;2.60;99.90
28761;DHT22;15917;50.014;8.352;2023-01-20T17:33:56;2.50;99.90
28761;DHT22;15917;50.014;8.352;2023-01-20T17:36:22;2.40;99.90
28761;DHT22;15917;50.014;8.352;2023-01-20T17:38:47;2.30;99.90
28761;DHT22;15917;50.014;8.352;2023-01-20T17:41:13;2.30;99.90
28761;DHT22;15917;50.014;8.352;2023-01-20T17:43:41;2.30;99.90
28761;DHT22;15917;50.014;8.352;2023-01-20T17:46:14;2.30;99.90
28761;DHT22;15917;50.014;8.352;2023-01-20T17:48:41;2.30;99.90
28761;DHT22;15917;50.014;8.352;2023-01-20T17:51:14;2.30;99.90
28761;DHT22;15917;50.014;8.352;2023-01-20T17:53:40;2.30;99.90
28761;DHT22;15917;50.014;8.352;2023-01-20T17:56:07;2.30;99.90
28761;DHT22;15917;50.014;8.352;2023-01-20T17:58:33;2.20;99.90
28761;DHT22;15917;50.014;8.352;2023-01-20T18:03:42;2.40;99.90
28761;DHT22;15917;50.014;8.352;2023-01-20T18:06:09;2.30;99.90
28761;DHT22;15917;50.014;8.352;2023-01-20T18:08:35;2.30;99.90
28761;DHT22;15917;50.014;8.352;2023-01-20T18:11:10;2.30;99.90
28761;DHT22;15917;50.014;8.352;2023-01-20T18:13:37;2.30;99.90
28761;DHT22;15917;50.014;8.352;2023-01-20T18:16:08;2.20;99.90
28761;DHT22;15917;50.014;8.352;2023-01-20T18:18:35;2.20;99.90
28761;DHT22;15917;50.014;8.352;2023-01-20T18:21:16;2.20;99.90
28761;DHT22;15917;50.014;8.352;2023-01-20T18:23:42;2.20;99.90
28761;DHT22;15917;50.014;8.352;2023-01-20T18:26:10;2.20;99.90
28761;DHT22;15917;50.014;8.352;2023-01-20T18:28:38;2.20;99.90
28761;DHT22;15917;50.014;8.352;2023-01-20T18:31:06;2.30;99.90
28761;DHT22;15917;50.014;8.352;2023-01-20T18:33:37;2.40;99.90
28761;DHT22;15917;50.014;8.352;2023-01-20T18:36:07;2.50;99.90
28761;DHT22;15917;50.014;8.352;2023-01-20T18:38:34;2.50;99.90